Time;durP1;ratioP1;P1;durP2;ratioP2;P2;SDS_P1;SDS_P2;PMS_P1;PMS_P2;Temp;Humidity;BMP_temperature;BMP_pressure;BME280_temperature;BME280_humidity;BME280_pressure;Samples;Min_cycle;Max_cycle;Signal;HPM_P1;HPM_P2
2022/04/08 00:03:45;;;;;;;6.30;1.02;;;6.70;99.90;;;;;;15379149;23;20103;-87
2022/04/08 00:09:47;;;;;;;8.43;1.25;;;6.70;99.90;;;;;;15410789;23;20036;-86
2022/04/08 00:15:49;;;;;;;7.88;1.75;;;6.60;99.90;;;;;;15380655;23;20603;-88
2022/04/08 00:21:50;;;;;;;10.20;1.00;;;6.60;99.90;;;;;;15410318;23;20401;-86
2022/04/08 00:27:53;;;;;;;6.22;0.95;;;6.40;99.90;;;;;;15379488;23;20032;-87
2022/04/08 00:33:55;;;;;;;10.02;1.20;;;6.30;99.90;;;;;;15377884;23;20198;-87
2022/04/08 00:39:57;;;;;;;7.40;1.48;;;6.20;99.90;;;;;;15376863;23;20439;-86
2022/04/08 00:45:58;;;;;;;6.90;1.48;;;6.10;99.90;;;;;;15375598;23;20590;-88
2022/04/08 00:52:01;;;;;;;8.98;1.35;;;6.10;99.90;;;;;;15396630;23;20040;-89
2022/04/08 00:58:04;;;;;;;9.20;1.70;;;6.10;99.90;;;;;;15376045;23;20151;-88
2022/04/08 01:04:06;;;;;;;10.20;1.40;;;6.00;99.90;;;;;;15374867;23;20155;-88
2022/04/08 01:10:09;;;;;;;10.43;1.40;;;6.00;99.90;;;;;;15373732;23;20025;-90
2022/04/08 01:16:11;;;;;;;9.00;2.38;;;5.90;99.90;;;;;;15373538;23;20155;-88
2022/04/08 01:22:13;;;;;;;7.25;1.17;;;5.80;99.90;;;;;;15370187;23;20029;-89
2022/04/08 01:28:14;;;;;;;8.88;1.20;;;5.70;99.90;;;;;;15368145;23;20463;-87
2022/04/08 01:34:16;;;;;;;4.72;0.55;;;5.60;99.90;;;;;;15446066;23;20154;-89
2022/04/08 01:40:18;;;;;;;5.93;0.80;;;5.30;99.90;;;;;;15443065;23;20340;-89
2022/04/08 01:46:20;;;;;;;3.20;0.82;;;5.20;99.90;;;;;;15443139;23;20114;-89
2022/04/08 01:52:23;;;;;;;2.85;0.47;;;5.20;99.90;;;;;;15414756;23;20024;-89
2022/04/08 01:58:25;;;;;;;3.22;0.70;;;5.20;99.90;;;;;;15371373;23;20102;-87
2022/04/08 02:04:27;;;;;;;1.95;0.63;;;5.20;99.90;;;;;;15370359;23;20082;-88
2022/04/08 02:10:29;;;;;;;7.25;1.48;;;5.20;99.90;;;;;;15398261;23;20107;-89
2022/04/08 02:16:31;;;;;;;5.00;0.90;;;5.20;99.90;;;;;;15372905;23;20100;-88
2022/04/08 02:22:35;;;;;;;3.22;0.70;;;5.20;99.90;;;;;;15395842;23;20352;-86
2022/04/08 02:28:37;;;;;;;2.28;0.52;;;5.20;99.90;;;;;;15473876;23;20031;-88
2022/04/08 02:34:39;;;;;;;3.47;0.95;;;5.10;99.90;;;;;;15389500;23;20025;-88
2022/04/08 02:40:41;;;;;;;4.90;1.45;;;5.00;99.90;;;;;;15372785;23;20568;-88
2022/04/08 02:46:43;;;;;;;6.25;0.95;;;4.90;99.90;;;;;;15374467;23;20051;-87
2022/04/08 02:52:45;;;;;;;5.35;1.02;;;4.80;99.90;;;;;;15374263;23;20394;-88
2022/04/08 02:58:48;;;;;;;3.42;0.80;;;4.80;99.90;;;;;;15376806;23;20094;-90
2022/04/08 03:04:51;;;;;;;2.27;0.83;;;4.90;99.90;;;;;;15376220;23;20024;-88
2022/04/08 03:10:53;;;;;;;2.70;0.80;;;4.80;99.90;;;;;;15407530;23;20016;-87
2022/04/08 03:16:55;;;;;;;2.40;0.73;;;4.90;99.90;;;;;;15381611;23;20119;-88
2022/04/08 03:22:57;;;;;;;3.15;0.52;;;4.80;99.90;;;;;;15404151;23;20423;-86
2022/04/08 03:28:59;;;;;;;3.10;0.60;;;4.70;99.90;;;;;;15481370;23;20060;-88
2022/04/08 03:35:00;;;;;;;1.35;0.52;;;4.70;99.90;;;;;;15480407;23;20111;-89
2022/04/08 03:41:02;;;;;;;1.25;0.60;;;4.70;99.90;;;;;;15492926;22;20004;-87
2022/04/08 03:47:05;;;;;;;3.35;0.60;;;4.70;99.90;;;;;;15480726;23;20677;-87
2022/04/08 03:53:09;;;;;;;0.98;0.60;;;4.70;99.90;;;;;;15479014;22;20097;-88
2022/04/08 03:59:11;;;;;;;0.63;0.40;;;4.60;99.90;;;;;;15480978;23;20047;-87
2022/04/08 04:05:13;;;;;;;1.23;0.50;;;4.50;99.90;;;;;;15474802;23;20071;-87
2022/04/08 04:11:16;;;;;;;2.22;0.60;;;4.60;99.90;;;;;;15478235;22;20060;-87
2022/04/08 04:17:18;;;;;;;5.80;1.00;;;4.50;99.90;;;;;;15473802;23;20585;-88
2022/04/08 04:23:20;;;;;;;3.05;0.70;;;4.50;99.90;;;;;;15478408;22;20103;-87
2022/04/08 04:29:22;;;;;;;5.43;0.57;;;4.40;99.90;;;;;;15477865;23;20456;-88
2022/04/08 04:35:24;;;;;;;5.30;0.63;;;4.20;99.90;;;;;;15485663;23;20051;-87
2022/04/08 04:41:26;;;;;;;5.82;0.88;;;4.10;99.90;;;;;;15487672;22;20027;-87
2022/04/08 04:47:29;;;;;;;7.25;0.80;;;4.10;99.90;;;;;;15483671;23;20020;-86
2022/04/08 04:53:31;;;;;;;6.95;0.80;;;4.10;99.90;;;;;;15489943;22;20078;-89
2022/04/08 04:59:33;;;;;;;4.93;1.05;;;4.10;99.90;;;;;;15465469;23;20107;-86
2022/04/08 05:05:36;;;;;;;5.22;1.15;;;4.10;99.90;;;;;;15470597;22;20066;-88
2022/04/08 05:11:37;;;;;;;3.85;0.68;;;4.00;99.90;;;;;;15472979;22;20459;-88
2022/04/08 05:17:39;;;;;;;11.02;1.45;;;4.00;99.90;;;;;;15481795;23;20540;-87
2022/04/08 05:23:41;;;;;;;7.88;1.30;;;4.10;99.90;;;;;;15509772;22;20384;-87
2022/04/08 05:29:43;;;;;;;12.07;1.52;;;4.20;99.90;;;;;;15482095;23;20093;-86
2022/04/08 05:35:45;;;;;;;10.25;1.55;;;4.20;99.90;;;;;;15439061;22;20048;-89
2022/04/08 05:41:47;;;;;;;9.85;1.80;;;4.30;99.90;;;;;;15425283;22;20391;-86
2022/04/08 05:47:50;;;;;;;8.88;1.70;;;4.30;99.90;;;;;;15446578;23;20047;-86
2022/04/08 05:53:52;;;;;;;12.40;1.90;;;4.30;99.90;;;;;;15432456;23;20032;-83
2022/04/08 05:59:59;;;;;;;6.25;1.67;;;4.40;99.90;;;;;;15403920;23;20044;-86
2022/04/08 06:06:01;;;;;;;9.98;3.17;;;4.40;99.90;;;;;;15476936;22;20020;-88
2022/04/08 06:12:04;;;;;;;13.52;1.88;;;4.60;99.90;;;;;;15479345;22;20025;-86
2022/04/08 06:18:08;;;;;;;12.90;1.77;;;4.60;99.90;;;;;;15479874;23;20097;-86
2022/04/08 06:24:10;;;;;;;9.83;2.20;;;4.80;99.90;;;;;;15570462;22;20081;-86
2022/04/08 06:30:16;;;;;;;12.27;1.85;;;4.70;99.90;;;;;;15634158;22;20404;-86
2022/04/08 06:36:18;;;;;;;13.80;2.08;;;4.70;99.90;;;;;;15605732;22;20533;-87
2022/04/08 06:42:21;;;;;;;7.93;1.60;;;4.70;99.90;;;;;;15630006;22;20467;-88
2022/04/08 06:48:22;;;;;;;9.80;1.90;;;4.80;99.90;;;;;;15606915;22;20052;-87
2022/04/08 06:54:25;;;;;;;9.25;1.95;;;4.90;99.90;;;;;;15636468;22;20046;-85
2022/04/08 07:00:27;;;;;;;6.57;1.60;;;5.00;99.90;;;;;;15606177;22;20030;-87
2022/04/08 07:06:29;;;;;;;8.48;1.63;;;5.00;99.90;;;;;;15639102;22;20064;-87
2022/04/08 07:12:31;;;;;;;12.00;2.00;;;5.10;99.90;;;;;;15636111;22;20019;-87
2022/04/08 07:18:33;;;;;;;9.32;1.75;;;5.20;99.90;;;;;;15598914;22;20038;-87
2022/04/08 07:24:35;;;;;;;8.20;1.90;;;5.30;99.90;;;;;;15599928;22;20089;-88
2022/04/08 07:30:37;;;;;;;9.75;1.65;;;5.40;99.90;;;;;;15603104;22;20023;-88
2022/04/08 07:36:39;;;;;;;10.15;1.83;;;5.60;99.90;;;;;;15609068;22;20098;-88
2022/04/08 07:42:41;;;;;;;13.20;2.35;;;5.70;99.90;;;;;;15602430;22;20176;-85
2022/04/08 07:48:43;;;;;;;8.82;2.13;;;5.70;99.90;;;;;;15603477;22;20062;-86
2022/04/08 07:54:45;;;;;;;10.93;1.98;;;5.80;99.90;;;;;;15599435;22;20023;-86
2022/04/08 08:00:47;;;;;;;9.90;2.20;;;6.00;99.90;;;;;;15601852;22;20090;-88
2022/04/08 08:06:49;;;;;;;7.72;2.30;;;6.20;99.90;;;;;;15630318;22;20026;-85
2022/04/08 08:12:52;;;;;;;14.63;2.30;;;6.30;99.90;;;;;;15626153;22;20053;-86
2022/04/08 08:18:56;;;;;;;11.30;2.22;;;6.30;99.90;;;;;;15628787;22;20031;-86
2022/04/08 08:24:58;;;;;;;9.63;2.22;;;6.40;99.90;;;;;;15602115;22;20053;-87
2022/04/08 08:31:00;;;;;;;12.32;2.60;;;6.80;99.90;;;;;;15595970;22;20034;-86
2022/04/08 08:37:03;;;;;;;8.30;1.80;;;6.90;99.90;;;;;;15628710;22;20538;-87
2022/04/08 08:43:05;;;;;;;9.70;2.15;;;6.70;99.90;;;;;;15596646;22;20074;-88
2022/04/08 08:49:11;;;;;;;7.32;1.80;;;7.10;99.90;;;;;;15623715;22;20109;-86
2022/04/08 08:55:13;;;;;;;6.28;1.48;;;7.00;99.90;;;;;;15619976;22;20024;-88
2022/04/08 09:01:15;;;;;;;5.85;1.67;;;7.10;99.90;;;;;;15600047;22;20053;-86
2022/04/08 09:07:24;;;;;;;11.20;2.10;;;7.20;99.90;;;;;;15607014;22;20112;-85
2022/04/08 09:13:28;;;;;;;8.05;1.73;;;7.30;99.90;;;;;;15598951;22;20024;-87
2022/04/08 09:19:34;;;;;;;4.57;1.27;;;7.80;99.90;;;;;;15626067;22;20524;-87
2022/04/08 09:25:37;;;;;;;10.35;2.05;;;8.00;99.90;;;;;;15604784;22;20034;-86
2022/04/08 09:31:39;;;;;;;4.95;1.38;;;7.90;99.90;;;;;;15631010;22;20034;-87
2022/04/08 09:37:41;;;;;;;3.30;1.08;;;7.80;99.90;;;;;;15628547;22;20438;-87
2022/04/08 09:43:43;;;;;;;6.50;1.27;;;8.00;99.90;;;;;;15600670;22;20023;-87
2022/04/08 09:49:45;;;;;;;6.22;1.10;;;7.80;99.90;;;;;;15599741;22;20114;-87
2022/04/08 09:55:46;;;;;;;5.35;1.27;;;7.80;99.90;;;;;;15630347;22;20027;-87
2022/04/08 10:01:50;;;;;;;8.93;0.98;;;7.80;99.90;;;;;;15654111;22;20041;-84
2022/04/08 10:07:55;;;;;;;6.82;1.20;;;7.90;99.90;;;;;;15628044;22;20027;-87
2022/04/08 10:14:07;;;;;;;4.72;1.08;;;8.30;99.90;;;;;;15622101;22;20085;-87
2022/04/08 10:20:20;;;;;;;7.97;1.25;;;8.40;99.90;;;;;;15627734;22;20015;-85
2022/04/08 10:26:26;;;;;;;5.93;1.30;;;8.30;99.90;;;;;;15613885;22;20020;-87
2022/04/08 10:32:40;;;;;;;4.85;1.42;;;8.20;99.90;;;;;;15604372;22;20578;-86
2022/04/08 10:38:41;;;;;;;4.65;1.20;;;8.40;99.90;;;;;;15599455;22;20355;-86
2022/04/08 10:44:44;;;;;;;5.38;1.25;;;8.60;99.90;;;;;;15595615;22;20453;-86
2022/04/08 10:50:46;;;;;;;3.03;0.90;;;8.80;99.90;;;;;;15624018;22;20051;-86
2022/04/08 10:56:58;;;;;;;6.05;1.60;;;9.00;99.90;;;;;;15598129;22;20023;-87
2022/04/08 11:03:00;;;;;;;4.10;1.02;;;9.30;99.90;;;;;;15594372;22;20034;-85
2022/04/08 11:09:09;;;;;;;5.88;1.05;;;9.30;99.90;;;;;;15602088;22;20544;-85
2022/04/08 11:15:16;;;;;;;5.00;1.00;;;9.20;99.90;;;;;;15627431;22;20027;-88
2022/04/08 11:21:19;;;;;;;3.25;1.20;;;8.70;99.90;;;;;;15598877;22;20027;-87
2022/04/08 11:27:21;;;;;;;3.93;1.10;;;8.90;99.90;;;;;;15601302;22;20093;-86
2022/04/08 11:33:25;;;;;;;5.40;1.05;;;9.00;99.90;;;;;;15628831;22;20144;-86
2022/04/08 11:39:27;;;;;;;5.23;1.33;;;9.00;99.90;;;;;;15601794;22;20031;-87
2022/04/08 11:45:30;;;;;;;7.32;1.20;;;9.00;99.90;;;;;;15634572;22;20148;-85
2022/04/08 11:51:32;;;;;;;5.53;1.27;;;9.30;99.90;;;;;;15628133;22;20102;-86
2022/04/08 11:57:35;;;;;;;9.23;1.42;;;9.00;99.90;;;;;;15626907;22;20049;-85
2022/04/08 12:03:39;;;;;;;7.28;1.33;;;8.70;99.90;;;;;;15624705;22;20069;-87
2022/04/08 12:09:41;;;;;;;6.37;1.33;;;8.70;99.90;;;;;;15604000;22;20026;-86
2022/04/08 12:15:44;;;;;;;4.38;1.27;;;8.40;99.90;;;;;;15597074;22;20105;-86
2022/04/08 12:21:48;;;;;;;4.53;1.33;;;8.50;99.90;;;;;;15601447;22;20026;-85
2022/04/08 12:27:55;;;;;;;8.70;1.42;;;8.80;99.90;;;;;;15600524;22;20050;-86
2022/04/08 12:34:11;;;;;;;6.07;1.13;;;8.70;99.90;;;;;;15598486;22;20460;-87
2022/04/08 12:40:13;;;;;;;5.22;1.50;;;8.80;99.90;;;;;;15597786;22;20106;-86
2022/04/08 12:46:16;;;;;;;5.95;1.40;;;8.70;99.90;;;;;;15628896;22;20051;-86
2022/04/08 12:52:18;;;;;;;6.38;1.27;;;8.70;99.90;;;;;;15626928;22;20076;-87
2022/04/08 12:58:21;;;;;;;6.93;1.77;;;8.90;99.90;;;;;;15622307;22;20027;-86
2022/04/08 13:04:22;;;;;;;5.45;1.20;;;8.90;99.90;;;;;;15595669;22;20522;-86
2022/04/08 13:10:24;;;;;;;5.68;1.45;;;8.90;99.90;;;;;;15620658;22;20062;-86
2022/04/08 13:16:26;;;;;;;7.40;1.50;;;9.00;99.90;;;;;;15630331;22;20081;-86
2022/04/08 13:22:28;;;;;;;7.57;1.40;;;8.90;99.90;;;;;;15594493;22;20034;-85
2022/04/08 13:28:30;;;;;;;3.42;1.08;;;8.90;99.90;;;;;;15602256;22;20122;-86
2022/04/08 13:34:33;;;;;;;4.50;1.00;;;8.70;99.90;;;;;;15589373;22;20030;-85
2022/04/08 13:40:38;;;;;;;8.43;1.48;;;8.70;99.90;;;;;;15625892;22;20677;-86
2022/04/08 13:46:40;;;;;;;3.20;1.10;;;8.60;99.90;;;;;;15624924;22;20509;-85
2022/04/08 13:52:48;;;;;;;7.43;1.23;;;8.60;99.90;;;;;;15669681;22;20034;-87
2022/04/08 13:58:50;;;;;;;3.55;1.40;;;8.70;99.90;;;;;;15633372;22;20020;-87
2022/04/08 14:04:52;;;;;;;6.38;1.10;;;8.80;99.90;;;;;;15606493;22;20112;-84
2022/04/08 14:10:54;;;;;;;6.20;1.20;;;8.70;99.90;;;;;;15600225;22;20044;-86
2022/04/08 14:16:56;;;;;;;6.60;1.40;;;8.60;99.90;;;;;;15624082;22;20030;-85
2022/04/08 14:22:58;;;;;;;7.20;1.23;;;8.60;99.90;;;;;;15595941;22;20030;-86
2022/04/08 14:28:59;;;;;;;3.33;1.20;;;8.60;99.90;;;;;;15628951;22;20030;-86
2022/04/08 14:35:02;;;;;;;5.60;1.85;;;8.90;99.90;;;;;;15621147;22;20034;-86
2022/04/08 14:41:04;;;;;;;4.45;1.48;;;8.90;99.90;;;;;;15599622;22;20023;-85
2022/04/08 14:47:06;;;;;;;7.53;1.42;;;8.90;99.90;;;;;;15621217;22;20023;-86
2022/04/08 14:53:08;;;;;;;5.68;1.30;;;8.70;99.90;;;;;;15646763;22;20015;-86
2022/04/08 14:59:11;;;;;;;6.32;1.60;;;8.80;99.90;;;;;;15638156;22;20007;-86
2022/04/08 15:05:12;;;;;;;4.22;1.70;;;9.00;99.90;;;;;;15628672;22;20045;-85
2022/04/08 15:11:15;;;;;;;8.35;1.67;;;9.40;99.90;;;;;;15646001;22;20426;-85
2022/04/08 15:17:17;;;;;;;6.03;1.95;;;9.60;99.90;;;;;;15638335;22;20028;-85
2022/04/08 15:23:20;;;;;;;5.35;1.52;;;9.20;99.90;;;;;;15637826;22;20092;-86
2022/04/08 15:29:21;;;;;;;5.20;1.65;;;9.10;99.90;;;;;;15639117;22;20378;-83
2022/04/08 15:35:23;;;;;;;8.13;1.90;;;9.10;99.90;;;;;;15609038;22;20064;-86
2022/04/08 15:41:25;;;;;;;5.43;1.75;;;9.00;99.90;;;;;;15614103;22;20034;-87
2022/04/08 15:47:28;;;;;;;4.25;1.50;;;9.10;99.90;;;;;;15626511;22;20787;-86
2022/04/08 15:53:30;;;;;;;7.45;1.63;;;9.00;99.90;;;;;;15626673;22;20056;-85
2022/04/08 15:59:32;;;;;;;7.47;1.55;;;8.80;99.90;;;;;;15598324;22;20086;-86
2022/04/08 16:05:34;;;;;;;7.20;2.10;;;8.80;99.90;;;;;;15595568;22;20091;-85
2022/04/08 16:11:36;;;;;;;5.75;1.63;;;8.90;99.90;;;;;;15598117;22;20406;-86
2022/04/08 16:17:38;;;;;;;6.03;2.05;;;9.00;99.90;;;;;;15600975;22;20019;-85
2022/04/08 16:23:40;;;;;;;5.10;1.75;;;8.80;99.90;;;;;;15595905;22;20108;-85
2022/04/08 16:29:41;;;;;;;4.85;1.65;;;8.90;99.90;;;;;;15627682;22;20080;-86
2022/04/08 16:35:43;;;;;;;3.63;1.60;;;8.90;99.90;;;;;;15597137;22;20027;-85
2022/04/08 16:41:45;;;;;;;7.38;1.70;;;8.90;99.90;;;;;;15624898;22;20098;-85
2022/04/08 16:47:47;;;;;;;6.28;1.88;;;8.70;99.90;;;;;;15626793;22;20020;-85
2022/04/08 16:53:49;;;;;;;6.13;2.08;;;8.40;99.90;;;;;;15595572;22;20149;-86
2022/04/08 16:59:51;;;;;;;7.60;1.88;;;8.10;99.90;;;;;;15598909;22;20047;-86
2022/04/08 17:05:53;;;;;;;5.32;2.72;;;7.90;99.90;;;;;;15620478;22;20530;-85
2022/04/08 17:11:54;;;;;;;5.85;1.98;;;7.80;99.90;;;;;;15598521;22;20097;-87
2022/04/08 17:17:57;;;;;;;5.88;1.95;;;7.70;99.90;;;;;;15625188;22;20407;-86
2022/04/08 17:23:59;;;;;;;5.05;2.20;;;7.60;99.90;;;;;;15596368;22;20023;-85
2022/04/08 17:30:01;;;;;;;4.70;2.00;;;7.60;99.90;;;;;;15598198;22;20026;-86
2022/04/08 17:36:03;;;;;;;8.07;3.47;;;7.50;99.90;;;;;;15595084;22;20097;-85
2022/04/08 17:42:08;;;;;;;5.70;2.00;;;7.50;99.90;;;;;;15593746;22;20076;-86
2022/04/08 17:48:09;;;;;;;5.82;2.30;;;7.50;99.90;;;;;;15595977;22;20097;-85
2022/04/08 17:54:12;;;;;;;8.40;3.10;;;7.40;99.90;;;;;;15595146;22;20098;-85
2022/04/08 18:00:15;;;;;;;8.85;3.17;;;7.30;99.90;;;;;;15629898;22;20027;-86
2022/04/08 18:06:16;;;;;;;6.70;3.17;;;6.70;99.90;;;;;;15603185;22;20643;-88
2022/04/08 18:12:18;;;;;;;7.45;4.10;;;6.20;99.90;;;;;;15626623;22;20112;-88
2022/04/08 18:18:22;;;;;;;7.85;3.63;;;6.20;99.90;;;;;;15631197;22;20051;-87
2022/04/08 18:24:25;;;;;;;8.60;3.60;;;5.90;99.90;;;;;;15627749;22;20108;-87
2022/04/08 18:30:27;;;;;;;8.57;3.80;;;5.70;99.90;;;;;;15605254;22;20019;-86
2022/04/08 18:36:31;;;;;;;6.50;3.63;;;5.80;99.90;;;;;;15599780;22;20034;-87
2022/04/08 18:42:33;;;;;;;8.03;4.23;;;5.60;99.90;;;;;;15603944;22;20076;-89
2022/04/08 18:48:36;;;;;;;7.72;3.85;;;5.40;99.90;;;;;;15625813;22;20046;-89
2022/04/08 18:54:37;;;;;;;9.43;4.05;;;5.20;99.90;;;;;;15631107;22;20023;-87
2022/04/08 19:00:40;;;;;;;9.75;4.25;;;5.20;99.90;;;;;;15608342;22;20037;-86
2022/04/08 19:06:42;;;;;;;10.20;4.43;;;5.10;99.90;;;;;;15653482;22;20035;-89
2022/04/08 19:12:44;;;;;;;9.18;4.72;;;5.20;99.90;;;;;;15677507;22;20015;-90
2022/04/08 19:18:46;;;;;;;12.27;4.03;;;5.00;99.90;;;;;;15639705;22;20034;-89
2022/04/08 19:24:49;;;;;;;9.80;3.40;;;5.20;99.90;;;;;;15599895;22;20031;-87
2022/04/08 19:30:51;;;;;;;6.70;2.75;;;5.30;99.90;;;;;;15636577;22;20023;-86
2022/04/08 19:36:52;;;;;;;5.55;3.03;;;5.40;99.90;;;;;;15619716;22;20023;-89
2022/04/08 19:42:55;;;;;;;7.03;3.13;;;5.40;99.90;;;;;;15639665;22;20352;-88
2022/04/08 19:48:57;;;;;;;8.90;3.15;;;5.40;99.90;;;;;;15612522;22;20023;-85
2022/04/08 19:54:59;;;;;;;5.97;2.85;;;5.40;99.90;;;;;;15604095;22;20429;-86
2022/04/08 20:01:01;;;;;;;7.55;3.55;;;5.40;99.90;;;;;;15612014;22;20026;-89
2022/04/08 20:07:03;;;;;;;9.48;2.70;;;5.40;99.90;;;;;;15606504;22;20023;-89
2022/04/08 20:13:06;;;;;;;7.45;2.85;;;5.40;99.90;;;;;;15607039;22;20841;-89
2022/04/08 20:19:09;;;;;;;9.70;2.38;;;5.50;99.90;;;;;;15631013;22;20024;-86
2022/04/08 20:25:11;;;;;;;7.07;2.42;;;5.50;99.90;;;;;;15631356;22;20092;-86
2022/04/08 20:31:13;;;;;;;9.90;2.60;;;5.50;99.90;;;;;;15605790;22;20023;-88
2022/04/08 20:37:15;;;;;;;8.82;2.83;;;5.30;99.90;;;;;;15608471;22;20062;-88
2022/04/08 20:43:16;;;;;;;5.95;2.42;;;5.30;99.90;;;;;;15613195;22;20035;-85
2022/04/08 20:49:18;;;;;;;6.72;2.75;;;5.20;99.90;;;;;;15628672;22;20453;-86
2022/04/08 20:55:20;;;;;;;8.50;3.05;;;5.10;99.90;;;;;;15604206;22;20079;-86
2022/04/08 21:01:23;;;;;;;9.07;2.88;;;5.10;99.90;;;;;;15629506;22;20106;-85
2022/04/08 21:07:26;;;;;;;9.57;2.65;;;5.00;99.90;;;;;;15605300;22;20030;-88
2022/04/08 21:13:28;;;;;;;8.25;3.05;;;5.00;99.90;;;;;;15604280;22;20129;-88
2022/04/08 21:19:30;;;;;;;8.57;3.03;;;5.00;99.90;;;;;;15602382;22;20019;-89
2022/04/08 21:25:31;;;;;;;7.90;1.90;;;4.90;99.90;;;;;;15626357;22;20923;-86
2022/04/08 21:31:34;;;;;;;7.45;2.13;;;4.90;99.90;;;;;;15601776;22;20490;-89
2022/04/08 21:37:36;;;;;;;7.63;2.20;;;4.80;99.90;;;;;;15607976;22;20089;-86
2022/04/08 21:43:39;;;;;;;8.40;2.03;;;4.80;99.90;;;;;;15601859;22;20103;-89
2022/04/08 21:49:41;;;;;;;10.07;1.90;;;4.70;99.90;;;;;;15599613;22;20058;-85
2022/04/08 21:55:46;;;;;;;9.43;1.80;;;4.70;99.90;;;;;;15625632;22;20580;-87
2022/04/08 22:01:49;;;;;;;6.15;1.63;;;4.60;99.90;;;;;;15601037;22;20057;-86
2022/04/08 22:07:52;;;;;;;5.88;1.70;;;4.60;99.90;;;;;;15627602;22;20149;-88
2022/04/08 22:13:54;;;;;;;7.95;1.58;;;4.50;99.90;;;;;;15599718;22;20518;-87
2022/04/08 22:19:56;;;;;;;5.20;1.60;;;4.50;99.90;;;;;;15634195;22;20031;-88
2022/04/08 22:25:59;;;;;;;6.35;1.60;;;4.50;99.90;;;;;;15605864;22;20027;-88
2022/04/08 22:32:01;;;;;;;5.22;1.60;;;4.40;99.90;;;;;;15630885;22;20101;-86
2022/04/08 22:38:04;;;;;;;7.65;1.58;;;4.40;99.90;;;;;;15608512;22;20324;-86
2022/04/08 22:44:07;;;;;;;4.82;1.52;;;4.40;99.90;;;;;;15606772;22;20034;-86
2022/04/08 22:50:10;;;;;;;6.55;2.10;;;4.40;99.90;;;;;;15606274;22;20053;-86
2022/04/08 22:56:12;;;;;;;7.68;1.60;;;4.30;99.90;;;;;;15608627;22;20024;-86
2022/04/08 23:02:15;;;;;;;13.90;1.90;;;4.20;99.90;;;;;;15606291;22;20034;-85
2022/04/08 23:08:17;;;;;;;14.25;2.65;;;4.20;99.90;;;;;;15636877;22;20027;-85
2022/04/08 23:14:19;;;;;;;19.17;2.25;;;4.10;99.90;;;;;;15608177;22;20047;-86
2022/04/08 23:20:21;;;;;;;5.30;1.45;;;4.20;99.90;;;;;;15640111;22;20035;-87
2022/04/08 23:26:23;;;;;;;3.63;1.40;;;4.00;99.90;;;;;;15635427;22;20570;-85
2022/04/08 23:32:24;;;;;;;10.18;2.03;;;4.10;99.90;;;;;;15611803;22;20133;-87
2022/04/08 23:38:26;;;;;;;10.55;2.25;;;4.10;99.90;;;;;;15632453;22;20072;-87
2022/04/08 23:44:28;;;;;;;6.82;1.30;;;4.00;99.90;;;;;;15618448;22;20394;-88
2022/04/08 23:50:30;;;;;;;10.98;1.95;;;3.90;99.90;;;;;;15632708;22;20073;-85
2022/04/08 23:56:32;;;;;;;18.20;2.10;;;3.90;99.90;;;;;;15616002;22;20615;-88
